sensor_id;sensor_type;location;lat;lon;timestamp;P1;durP1;ratioP1;P2;durP2;ratioP2
54977;SDS011;40873;47.522;19.106;2022-12-26T00:01:18;17.98;;;8.82;;
54977;SDS011;40873;47.522;19.106;2022-12-26T00:03:48;19.70;;;9.00;;
54977;SDS011;40873;47.522;19.106;2022-12-26T00:06:17;18.92;;;9.10;;
54977;SDS011;40873;47.522;19.106;2022-12-26T00:08:46;17.73;;;8.98;;
54977;SDS011;40873;47.522;19.106;2022-12-26T00:11:13;17.58;;;9.73;;
54977;SDS011;40873;47.522;19.106;2022-12-26T00:13:41;21.30;;;9.27;;
54977;SDS011;40873;47.522;19.106;2022-12-26T00:16:09;23.05;;;9.52;;
54977;SDS011;40873;47.522;19.106;2022-12-26T00:18:40;21.70;;;11.10;;
54977;SDS011;40873;47.522;19.106;2022-12-26T00:21:08;22.30;;;11.20;;
54977;SDS011;40873;47.522;19.106;2022-12-26T00:23:37;23.70;;;13.05;;
54977;SDS011;40873;47.522;19.106;2022-12-26T00:26:06;20.02;;;11.25;;
54977;SDS011;40873;47.522;19.106;2022-12-26T00:28:35;19.50;;;10.50;;
54977;SDS011;40873;47.522;19.106;2022-12-26T00:31:03;18.17;;;10.52;;
54977;SDS011;40873;47.522;19.106;2022-12-26T00:33:32;21.98;;;11.05;;
54977;SDS011;40873;47.522;19.106;2022-12-26T00:36:04;21.95;;;12.00;;
54977;SDS011;40873;47.522;19.106;2022-12-26T00:38:34;21.07;;;11.47;;
54977;SDS011;40873;47.522;19.106;2022-12-26T00:41:02;22.85;;;11.55;;
54977;SDS011;40873;47.522;19.106;2022-12-26T00:43:30;24.80;;;12.88;;
54977;SDS011;40873;47.522;19.106;2022-12-26T00:45:58;24.85;;;12.88;;
54977;SDS011;40873;47.522;19.106;2022-12-26T00:48:26;25.33;;;13.13;;
54977;SDS011;40873;47.522;19.106;2022-12-26T00:50:53;29.27;;;13.15;;
54977;SDS011;40873;47.522;19.106;2022-12-26T00:53:21;29.13;;;14.05;;
54977;SDS011;40873;47.522;19.106;2022-12-26T00:55:49;24.65;;;11.30;;
54977;SDS011;40873;47.522;19.106;2022-12-26T00:58:17;23.50;;;13.20;;
54977;SDS011;40873;47.522;19.106;2022-12-26T01:00:45;30.98;;;14.60;;
54977;SDS011;40873;47.522;19.106;2022-12-26T01:03:13;23.00;;;13.18;;
54977;SDS011;40873;47.522;19.106;2022-12-26T01:05:40;27.67;;;13.02;;
54977;SDS011;40873;47.522;19.106;2022-12-26T01:08:09;27.70;;;12.35;;
54977;SDS011;40873;47.522;19.106;2022-12-26T01:10:49;27.88;;;13.52;;
54977;SDS011;40873;47.522;19.106;2022-12-26T01:13:16;26.30;;;13.15;;
54977;SDS011;40873;47.522;19.106;2022-12-26T01:15:46;26.17;;;13.02;;
54977;SDS011;40873;47.522;19.106;2022-12-26T01:18:15;24.25;;;13.80;;
54977;SDS011;40873;47.522;19.106;2022-12-26T01:20:42;24.70;;;14.95;;
54977;SDS011;40873;47.522;19.106;2022-12-26T01:23:09;31.63;;;15.57;;
54977;SDS011;40873;47.522;19.106;2022-12-26T01:25:37;25.70;;;14.25;;
54977;SDS011;40873;47.522;19.106;2022-12-26T01:28:24;29.25;;;14.55;;
54977;SDS011;40873;47.522;19.106;2022-12-26T01:30:51;29.67;;;13.93;;
54977;SDS011;40873;47.522;19.106;2022-12-26T01:33:19;27.77;;;15.30;;
54977;SDS011;40873;47.522;19.106;2022-12-26T01:35:49;27.63;;;14.15;;
54977;SDS011;40873;47.522;19.106;2022-12-26T01:38:17;29.35;;;14.00;;
54977;SDS011;40873;47.522;19.106;2022-12-26T01:40:45;28.95;;;14.18;;
54977;SDS011;40873;47.522;19.106;2022-12-26T01:43:12;31.38;;;15.77;;
54977;SDS011;40873;47.522;19.106;2022-12-26T01:45:41;29.17;;;13.95;;
54977;SDS011;40873;47.522;19.106;2022-12-26T01:48:24;29.90;;;15.43;;
54977;SDS011;40873;47.522;19.106;2022-12-26T01:50:59;30.27;;;14.48;;
54977;SDS011;40873;47.522;19.106;2022-12-26T01:56:07;32.05;;;15.93;;
54977;SDS011;40873;47.522;19.106;2022-12-26T01:58:42;32.15;;;14.57;;
54977;SDS011;40873;47.522;19.106;2022-12-26T02:01:13;29.77;;;13.90;;
54977;SDS011;40873;47.522;19.106;2022-12-26T02:03:41;33.55;;;15.43;;
54977;SDS011;40873;47.522;19.106;2022-12-26T02:06:33;29.15;;;14.65;;
54977;SDS011;40873;47.522;19.106;2022-12-26T02:09:01;30.48;;;15.05;;
54977;SDS011;40873;47.522;19.106;2022-12-26T02:11:31;26.80;;;14.68;;
54977;SDS011;40873;47.522;19.106;2022-12-26T02:14:03;30.80;;;16.05;;
54977;SDS011;40873;47.522;19.106;2022-12-26T02:16:33;32.97;;;15.60;;
54977;SDS011;40873;47.522;19.106;2022-12-26T02:19:02;35.88;;;15.35;;
54977;SDS011;40873;47.522;19.106;2022-12-26T02:35:48;31.23;;;15.38;;
54977;SDS011;40873;47.522;19.106;2022-12-26T02:43:59;31.17;;;14.60;;
54977;SDS011;40873;47.522;19.106;2022-12-26T02:50:05;27.25;;;13.13;;
54977;SDS011;40873;47.522;19.106;2022-12-26T02:53:10;31.13;;;14.43;;
54977;SDS011;40873;47.522;19.106;2022-12-26T02:56:14;32.75;;;15.90;;
54977;SDS011;40873;47.522;19.106;2022-12-26T02:59:12;36.00;;;14.85;;
54977;SDS011;40873;47.522;19.106;2022-12-26T03:05:32;33.03;;;14.70;;
54977;SDS011;40873;47.522;19.106;2022-12-26T03:08:29;32.92;;;14.75;;
54977;SDS011;40873;47.522;19.106;2022-12-26T03:11:17;34.33;;;15.73;;
54977;SDS011;40873;47.522;19.106;2022-12-26T03:14:12;26.35;;;15.48;;
54977;SDS011;40873;47.522;19.106;2022-12-26T03:16:45;32.20;;;15.10;;
54977;SDS011;40873;47.522;19.106;2022-12-26T03:19:35;32.05;;;15.70;;
54977;SDS011;40873;47.522;19.106;2022-12-26T03:22:45;30.17;;;15.52;;
54977;SDS011;40873;47.522;19.106;2022-12-26T03:25:18;33.95;;;15.65;;
54977;SDS011;40873;47.522;19.106;2022-12-26T03:28:08;34.95;;;15.77;;
54977;SDS011;40873;47.522;19.106;2022-12-26T03:30:39;34.00;;;14.80;;
54977;SDS011;40873;47.522;19.106;2022-12-26T03:36:14;28.65;;;14.18;;
54977;SDS011;40873;47.522;19.106;2022-12-26T03:44:47;28.90;;;14.02;;
54977;SDS011;40873;47.522;19.106;2022-12-26T03:47:46;31.40;;;13.73;;
54977;SDS011;40873;47.522;19.106;2022-12-26T03:50:40;38.90;;;16.10;;
54977;SDS011;40873;47.522;19.106;2022-12-26T03:53:53;32.90;;;14.68;;
54977;SDS011;40873;47.522;19.106;2022-12-26T03:56:42;31.13;;;15.50;;
54977;SDS011;40873;47.522;19.106;2022-12-26T03:59:40;27.02;;;12.48;;
54977;SDS011;40873;47.522;19.106;2022-12-26T04:02:43;28.42;;;13.80;;
54977;SDS011;40873;47.522;19.106;2022-12-26T04:05:32;28.33;;;13.70;;
54977;SDS011;40873;47.522;19.106;2022-12-26T04:08:25;32.72;;;13.55;;
54977;SDS011;40873;47.522;19.106;2022-12-26T04:11:32;30.33;;;15.02;;
54977;SDS011;40873;47.522;19.106;2022-12-26T04:17:16;35.85;;;15.50;;
54977;SDS011;40873;47.522;19.106;2022-12-26T04:23:05;29.27;;;14.55;;
54977;SDS011;40873;47.522;19.106;2022-12-26T04:26:05;34.58;;;15.43;;
54977;SDS011;40873;47.522;19.106;2022-12-26T04:28:56;31.50;;;15.30;;
54977;SDS011;40873;47.522;19.106;2022-12-26T04:31:44;39.03;;;17.55;;
54977;SDS011;40873;47.522;19.106;2022-12-26T04:34:56;29.70;;;15.35;;
54977;SDS011;40873;47.522;19.106;2022-12-26T04:37:49;33.65;;;16.45;;
54977;SDS011;40873;47.522;19.106;2022-12-26T04:40:39;32.58;;;14.70;;
54977;SDS011;40873;47.522;19.106;2022-12-26T04:43:28;31.20;;;14.95;;
54977;SDS011;40873;47.522;19.106;2022-12-26T04:46:18;32.75;;;15.15;;
54977;SDS011;40873;47.522;19.106;2022-12-26T04:48:47;33.78;;;14.85;;
54977;SDS011;40873;47.522;19.106;2022-12-26T04:51:35;33.65;;;15.75;;
54977;SDS011;40873;47.522;19.106;2022-12-26T04:54:03;38.03;;;15.73;;
54977;SDS011;40873;47.522;19.106;2022-12-26T04:56:30;32.67;;;16.00;;
54977;SDS011;40873;47.522;19.106;2022-12-26T04:58:58;34.88;;;15.45;;
54977;SDS011;40873;47.522;19.106;2022-12-26T05:01:25;33.55;;;15.60;;
54977;SDS011;40873;47.522;19.106;2022-12-26T05:04:12;38.53;;;16.95;;
54977;SDS011;40873;47.522;19.106;2022-12-26T05:06:59;32.60;;;16.02;;
54977;SDS011;40873;47.522;19.106;2022-12-26T05:09:50;33.75;;;15.18;;
54977;SDS011;40873;47.522;19.106;2022-12-26T05:12:19;35.78;;;16.13;;
54977;SDS011;40873;47.522;19.106;2022-12-26T05:14:46;32.88;;;14.55;;
54977;SDS011;40873;47.522;19.106;2022-12-26T05:17:13;37.83;;;15.80;;
54977;SDS011;40873;47.522;19.106;2022-12-26T05:19:59;33.80;;;16.63;;
54977;SDS011;40873;47.522;19.106;2022-12-26T05:22:45;36.83;;;16.13;;
54977;SDS011;40873;47.522;19.106;2022-12-26T05:25:32;31.50;;;16.55;;
54977;SDS011;40873;47.522;19.106;2022-12-26T05:28:20;38.95;;;16.92;;
54977;SDS011;40873;47.522;19.106;2022-12-26T05:31:06;38.05;;;16.45;;
54977;SDS011;40873;47.522;19.106;2022-12-26T05:33:38;34.05;;;15.40;;
54977;SDS011;40873;47.522;19.106;2022-12-26T05:36:24;34.83;;;15.73;;
54977;SDS011;40873;47.522;19.106;2022-12-26T05:39:04;32.15;;;15.80;;
54977;SDS011;40873;47.522;19.106;2022-12-26T05:41:31;44.28;;;17.10;;
54977;SDS011;40873;47.522;19.106;2022-12-26T05:43:58;44.45;;;17.98;;
54977;SDS011;40873;47.522;19.106;2022-12-26T05:46:26;43.08;;;18.88;;
54977;SDS011;40873;47.522;19.106;2022-12-26T05:48:53;41.08;;;18.05;;
54977;SDS011;40873;47.522;19.106;2022-12-26T05:51:20;43.10;;;16.95;;
54977;SDS011;40873;47.522;19.106;2022-12-26T05:53:47;45.30;;;19.23;;
54977;SDS011;40873;47.522;19.106;2022-12-26T05:56:14;50.20;;;19.75;;
54977;SDS011;40873;47.522;19.106;2022-12-26T05:58:42;36.47;;;16.83;;
54977;SDS011;40873;47.522;19.106;2022-12-26T06:01:11;37.40;;;17.88;;
54977;SDS011;40873;47.522;19.106;2022-12-26T06:03:39;40.38;;;17.10;;
54977;SDS011;40873;47.522;19.106;2022-12-26T06:06:09;39.40;;;17.70;;
54977;SDS011;40873;47.522;19.106;2022-12-26T06:08:36;42.28;;;18.60;;
54977;SDS011;40873;47.522;19.106;2022-12-26T06:11:05;45.80;;;17.45;;
54977;SDS011;40873;47.522;19.106;2022-12-26T06:13:33;44.53;;;18.55;;
54977;SDS011;40873;47.522;19.106;2022-12-26T06:16:04;51.45;;;20.10;;
54977;SDS011;40873;47.522;19.106;2022-12-26T06:18:32;41.72;;;18.02;;
54977;SDS011;40873;47.522;19.106;2022-12-26T06:21:04;45.15;;;18.38;;
54977;SDS011;40873;47.522;19.106;2022-12-26T06:23:33;38.42;;;16.38;;
54977;SDS011;40873;47.522;19.106;2022-12-26T06:26:01;48.65;;;18.38;;
54977;SDS011;40873;47.522;19.106;2022-12-26T06:28:28;38.03;;;16.98;;
54977;SDS011;40873;47.522;19.106;2022-12-26T06:31:02;66.80;;;20.42;;
54977;SDS011;40873;47.522;19.106;2022-12-26T06:33:30;51.88;;;16.85;;
54977;SDS011;40873;47.522;19.106;2022-12-26T06:36:01;45.67;;;18.08;;
54977;SDS011;40873;47.522;19.106;2022-12-26T06:38:29;64.75;;;19.58;;
54977;SDS011;40873;47.522;19.106;2022-12-26T06:40:56;52.38;;;17.92;;
54977;SDS011;40873;47.522;19.106;2022-12-26T06:43:23;61.28;;;19.83;;
54977;SDS011;40873;47.522;19.106;2022-12-26T06:45:54;44.85;;;18.23;;
54977;SDS011;40873;47.522;19.106;2022-12-26T06:48:22;48.53;;;19.50;;
54977;SDS011;40873;47.522;19.106;2022-12-26T06:50:49;50.00;;;18.42;;
54977;SDS011;40873;47.522;19.106;2022-12-26T06:53:16;52.08;;;19.55;;
54977;SDS011;40873;47.522;19.106;2022-12-26T06:55:47;48.17;;;17.95;;
54977;SDS011;40873;47.522;19.106;2022-12-26T06:58:15;47.38;;;18.40;;
54977;SDS011;40873;47.522;19.106;2022-12-26T07:00:43;48.65;;;17.52;;
54977;SDS011;40873;47.522;19.106;2022-12-26T07:03:10;42.60;;;18.60;;
54977;SDS011;40873;47.522;19.106;2022-12-26T07:05:37;48.83;;;19.38;;
54977;SDS011;40873;47.522;19.106;2022-12-26T07:08:04;45.83;;;18.55;;
54977;SDS011;40873;47.522;19.106;2022-12-26T07:10:36;38.42;;;17.75;;
54977;SDS011;40873;47.522;19.106;2022-12-26T07:13:02;41.67;;;17.13;;
54977;SDS011;40873;47.522;19.106;2022-12-26T07:15:30;38.33;;;17.30;;
54977;SDS011;40873;47.522;19.106;2022-12-26T07:18:00;46.10;;;18.25;;
54977;SDS011;40873;47.522;19.106;2022-12-26T07:20:27;43.35;;;17.63;;
54977;SDS011;40873;47.522;19.106;2022-12-26T07:22:53;43.50;;;18.90;;
54977;SDS011;40873;47.522;19.106;2022-12-26T07:25:20;47.55;;;19.85;;
54977;SDS011;40873;47.522;19.106;2022-12-26T07:27:51;54.05;;;20.38;;
54977;SDS011;40873;47.522;19.106;2022-12-26T07:30:18;46.28;;;18.15;;
54977;SDS011;40873;47.522;19.106;2022-12-26T07:32:45;45.35;;;19.20;;
54977;SDS011;40873;47.522;19.106;2022-12-26T07:35:13;41.00;;;18.63;;
54977;SDS011;40873;47.522;19.106;2022-12-26T07:37:39;50.55;;;20.20;;
54977;SDS011;40873;47.522;19.106;2022-12-26T07:40:07;46.40;;;21.05;;
54977;SDS011;40873;47.522;19.106;2022-12-26T07:42:34;45.30;;;18.92;;
54977;SDS011;40873;47.522;19.106;2022-12-26T07:45:01;45.13;;;19.15;;
54977;SDS011;40873;47.522;19.106;2022-12-26T07:47:28;49.53;;;19.48;;
54977;SDS011;40873;47.522;19.106;2022-12-26T07:49:55;48.30;;;19.83;;
54977;SDS011;40873;47.522;19.106;2022-12-26T07:52:22;47.00;;;18.73;;
54977;SDS011;40873;47.522;19.106;2022-12-26T07:54:49;39.58;;;19.52;;
54977;SDS011;40873;47.522;19.106;2022-12-26T07:57:16;50.38;;;20.50;;
54977;SDS011;40873;47.522;19.106;2022-12-26T08:00:04;46.70;;;20.60;;
54977;SDS011;40873;47.522;19.106;2022-12-26T08:02:32;43.95;;;19.05;;
54977;SDS011;40873;47.522;19.106;2022-12-26T08:05:00;44.38;;;18.58;;
54977;SDS011;40873;47.522;19.106;2022-12-26T08:07:27;44.03;;;17.73;;
54977;SDS011;40873;47.522;19.106;2022-12-26T08:09:54;46.97;;;19.35;;
54977;SDS011;40873;47.522;19.106;2022-12-26T08:12:21;40.20;;;17.90;;
54977;SDS011;40873;47.522;19.106;2022-12-26T08:14:50;46.72;;;18.70;;
54977;SDS011;40873;47.522;19.106;2022-12-26T08:17:17;43.42;;;19.35;;
54977;SDS011;40873;47.522;19.106;2022-12-26T08:19:44;48.03;;;21.42;;
54977;SDS011;40873;47.522;19.106;2022-12-26T08:22:11;46.00;;;18.45;;
54977;SDS011;40873;47.522;19.106;2022-12-26T08:24:38;49.03;;;19.95;;
54977;SDS011;40873;47.522;19.106;2022-12-26T08:27:05;51.15;;;22.45;;
54977;SDS011;40873;47.522;19.106;2022-12-26T08:29:32;47.25;;;21.33;;
54977;SDS011;40873;47.522;19.106;2022-12-26T08:31:58;44.47;;;21.63;;
54977;SDS011;40873;47.522;19.106;2022-12-26T08:34:30;50.28;;;21.25;;
54977;SDS011;40873;47.522;19.106;2022-12-26T08:36:59;53.10;;;20.53;;
54977;SDS011;40873;47.522;19.106;2022-12-26T08:39:26;48.50;;;20.10;;
54977;SDS011;40873;47.522;19.106;2022-12-26T08:41:53;45.28;;;19.70;;
54977;SDS011;40873;47.522;19.106;2022-12-26T08:44:20;47.15;;;19.90;;
54977;SDS011;40873;47.522;19.106;2022-12-26T08:46:53;49.85;;;19.58;;
54977;SDS011;40873;47.522;19.106;2022-12-26T08:49:20;52.05;;;20.02;;
54977;SDS011;40873;47.522;19.106;2022-12-26T08:51:47;47.95;;;19.58;;
54977;SDS011;40873;47.522;19.106;2022-12-26T08:54:14;42.13;;;19.80;;
54977;SDS011;40873;47.522;19.106;2022-12-26T08:56:40;48.03;;;20.65;;
54977;SDS011;40873;47.522;19.106;2022-12-26T08:59:08;52.20;;;21.35;;
54977;SDS011;40873;47.522;19.106;2022-12-26T09:01:34;47.28;;;21.92;;
54977;SDS011;40873;47.522;19.106;2022-12-26T09:04:04;54.80;;;23.00;;
54977;SDS011;40873;47.522;19.106;2022-12-26T09:06:35;55.60;;;23.42;;
54977;SDS011;40873;47.522;19.106;2022-12-26T09:09:04;49.60;;;22.55;;
54977;SDS011;40873;47.522;19.106;2022-12-26T09:11:33;53.35;;;20.95;;
54977;SDS011;40873;47.522;19.106;2022-12-26T09:14:00;53.15;;;22.88;;
54977;SDS011;40873;47.522;19.106;2022-12-26T09:16:39;54.15;;;23.40;;
54977;SDS011;40873;47.522;19.106;2022-12-26T09:19:15;54.25;;;22.83;;
54977;SDS011;40873;47.522;19.106;2022-12-26T09:21:43;59.15;;;23.60;;
54977;SDS011;40873;47.522;19.106;2022-12-26T09:24:12;62.92;;;22.25;;
54977;SDS011;40873;47.522;19.106;2022-12-26T09:26:40;60.38;;;24.17;;
54977;SDS011;40873;47.522;19.106;2022-12-26T09:29:11;57.05;;;22.60;;
54977;SDS011;40873;47.522;19.106;2022-12-26T09:31:39;58.03;;;23.38;;
54977;SDS011;40873;47.522;19.106;2022-12-26T09:34:06;60.70;;;21.80;;
54977;SDS011;40873;47.522;19.106;2022-12-26T09:36:34;58.72;;;22.05;;
54977;SDS011;40873;47.522;19.106;2022-12-26T09:39:06;59.05;;;23.52;;
54977;SDS011;40873;47.522;19.106;2022-12-26T09:47:36;56.28;;;20.10;;
54977;SDS011;40873;47.522;19.106;2022-12-26T09:52:54;50.35;;;19.13;;
54977;SDS011;40873;47.522;19.106;2022-12-26T10:00:47;50.75;;;19.27;;
54977;SDS011;40873;47.522;19.106;2022-12-26T10:03:17;48.55;;;18.67;;
54977;SDS011;40873;47.522;19.106;2022-12-26T10:05:56;55.63;;;20.33;;
54977;SDS011;40873;47.522;19.106;2022-12-26T10:08:45;45.47;;;19.20;;
54977;SDS011;40873;47.522;19.106;2022-12-26T10:15:10;51.65;;;20.63;;
54977;SDS011;40873;47.522;19.106;2022-12-26T10:17:18;52.47;;;19.33;;
54977;SDS011;40873;47.522;19.106;2022-12-26T10:22:49;51.60;;;18.83;;
54977;SDS011;40873;47.522;19.106;2022-12-26T10:25:56;52.80;;;22.73;;
54977;SDS011;40873;47.522;19.106;2022-12-26T10:31:12;55.20;;;22.25;;
54977;SDS011;40873;47.522;19.106;2022-12-26T10:34:11;49.67;;;20.50;;
54977;SDS011;40873;47.522;19.106;2022-12-26T10:37:04;55.65;;;21.05;;
54977;SDS011;40873;47.522;19.106;2022-12-26T10:40:49;53.85;;;20.25;;
54977;SDS011;40873;47.522;19.106;2022-12-26T10:42:56;52.78;;;20.90;;
54977;SDS011;40873;47.522;19.106;2022-12-26T10:48:27;60.45;;;20.30;;
54977;SDS011;40873;47.522;19.106;2022-12-26T10:50:55;52.85;;;20.52;;
54977;SDS011;40873;47.522;19.106;2022-12-26T10:53:22;47.65;;;19.67;;
54977;SDS011;40873;47.522;19.106;2022-12-26T10:55:49;40.55;;;18.15;;
54977;SDS011;40873;47.522;19.106;2022-12-26T10:58:20;49.33;;;19.40;;
54977;SDS011;40873;47.522;19.106;2022-12-26T11:00:54;49.25;;;19.92;;
54977;SDS011;40873;47.522;19.106;2022-12-26T11:03:21;45.10;;;19.35;;
54977;SDS011;40873;47.522;19.106;2022-12-26T11:05:52;54.40;;;19.92;;
54977;SDS011;40873;47.522;19.106;2022-12-26T11:08:39;48.22;;;19.70;;
54977;SDS011;40873;47.522;19.106;2022-12-26T11:11:22;53.42;;;21.77;;
54977;SDS011;40873;47.522;19.106;2022-12-26T11:14:28;45.88;;;19.33;;
54977;SDS011;40873;47.522;19.106;2022-12-26T11:17:04;40.22;;;19.30;;
54977;SDS011;40873;47.522;19.106;2022-12-26T11:19:40;54.40;;;19.38;;
54977;SDS011;40873;47.522;19.106;2022-12-26T11:22:26;48.10;;;19.33;;
54977;SDS011;40873;47.522;19.106;2022-12-26T11:25:01;53.70;;;18.38;;
54977;SDS011;40873;47.522;19.106;2022-12-26T11:27:39;42.97;;;19.30;;
54977;SDS011;40873;47.522;19.106;2022-12-26T11:33:09;50.50;;;19.75;;
54977;SDS011;40873;47.522;19.106;2022-12-26T11:35:50;48.13;;;20.42;;
54977;SDS011;40873;47.522;19.106;2022-12-26T11:38:49;56.55;;;21.55;;
54977;SDS011;40873;47.522;19.106;2022-12-26T11:46:48;50.58;;;20.90;;
54977;SDS011;40873;47.522;19.106;2022-12-26T11:52:01;43.47;;;20.30;;
54977;SDS011;40873;47.522;19.106;2022-12-26T11:54:49;53.80;;;20.35;;
54977;SDS011;40873;47.522;19.106;2022-12-26T11:57:18;49.45;;;21.95;;
54977;SDS011;40873;47.522;19.106;2022-12-26T11:59:48;40.83;;;18.95;;
54977;SDS011;40873;47.522;19.106;2022-12-26T12:02:18;49.65;;;21.52;;
54977;SDS011;40873;47.522;19.106;2022-12-26T12:04:50;46.25;;;21.48;;
54977;SDS011;40873;47.522;19.106;2022-12-26T12:12:32;48.65;;;21.73;;
54977;SDS011;40873;47.522;19.106;2022-12-26T12:21:11;43.75;;;18.92;;
54977;SDS011;40873;47.522;19.106;2022-12-26T12:26:09;45.22;;;19.73;;
54977;SDS011;40873;47.522;19.106;2022-12-26T12:37:06;49.45;;;22.50;;
54977;SDS011;40873;47.522;19.106;2022-12-26T12:42:34;45.35;;;21.13;;
54977;SDS011;40873;47.522;19.106;2022-12-26T12:45:19;48.38;;;20.98;;
54977;SDS011;40873;47.522;19.106;2022-12-26T12:48:03;43.80;;;21.42;;
54977;SDS011;40873;47.522;19.106;2022-12-26T12:53:48;47.97;;;20.65;;
54977;SDS011;40873;47.522;19.106;2022-12-26T13:02:01;45.90;;;19.55;;
54977;SDS011;40873;47.522;19.106;2022-12-26T13:04:44;48.65;;;22.20;;
54977;SDS011;40873;47.522;19.106;2022-12-26T13:07:18;40.47;;;19.00;;
54977;SDS011;40873;47.522;19.106;2022-12-26T13:09:53;54.13;;;21.70;;
54977;SDS011;40873;47.522;19.106;2022-12-26T13:12:26;50.22;;;21.00;;
54977;SDS011;40873;47.522;19.106;2022-12-26T13:15:05;48.53;;;22.08;;
54977;SDS011;40873;47.522;19.106;2022-12-26T13:17:59;43.85;;;20.90;;
54977;SDS011;40873;47.522;19.106;2022-12-26T13:20:45;44.50;;;20.33;;
54977;SDS011;40873;47.522;19.106;2022-12-26T13:23:30;51.00;;;20.42;;
54977;SDS011;40873;47.522;19.106;2022-12-26T13:28:54;49.22;;;23.33;;
54977;SDS011;40873;47.522;19.106;2022-12-26T13:31:24;49.53;;;23.08;;
54977;SDS011;40873;47.522;19.106;2022-12-26T13:33:56;40.58;;;19.75;;
54977;SDS011;40873;47.522;19.106;2022-12-26T13:36:38;47.92;;;21.77;;
54977;SDS011;40873;47.522;19.106;2022-12-26T13:39:15;45.45;;;23.55;;
54977;SDS011;40873;47.522;19.106;2022-12-26T13:44:52;46.60;;;22.42;;
54977;SDS011;40873;47.522;19.106;2022-12-26T13:58:24;48.38;;;22.15;;
54977;SDS011;40873;47.522;19.106;2022-12-26T14:06:56;53.13;;;22.93;;
54977;SDS011;40873;47.522;19.106;2022-12-26T14:16:06;46.03;;;20.63;;
54977;SDS011;40873;47.522;19.106;2022-12-26T14:21:45;48.60;;;20.42;;
54977;SDS011;40873;47.522;19.106;2022-12-26T14:24:35;46.88;;;22.65;;
54977;SDS011;40873;47.522;19.106;2022-12-26T14:38:21;50.00;;;22.35;;
54977;SDS011;40873;47.522;19.106;2022-12-26T14:41:22;46.10;;;20.70;;
54977;SDS011;40873;47.522;19.106;2022-12-26T14:54:52;49.90;;;22.58;;
54977;SDS011;40873;47.522;19.106;2022-12-26T14:57:39;52.10;;;22.92;;
54977;SDS011;40873;47.522;19.106;2022-12-26T15:05:25;55.97;;;22.70;;
54977;SDS011;40873;47.522;19.106;2022-12-26T15:24:18;50.80;;;22.60;;
54977;SDS011;40873;47.522;19.106;2022-12-26T15:33:21;50.83;;;21.50;;
54977;SDS011;40873;47.522;19.106;2022-12-26T15:35:35;49.40;;;21.33;;
54977;SDS011;40873;47.522;19.106;2022-12-26T15:38:35;60.85;;;25.05;;
54977;SDS011;40873;47.522;19.106;2022-12-26T15:46:45;65.95;;;22.23;;
54977;SDS011;40873;47.522;19.106;2022-12-26T15:50:01;51.25;;;22.58;;
54977;SDS011;40873;47.522;19.106;2022-12-26T16:02:10;57.60;;;24.03;;
54977;SDS011;40873;47.522;19.106;2022-12-26T16:04:48;71.22;;;25.77;;
54977;SDS011;40873;47.522;19.106;2022-12-26T16:07:26;55.83;;;25.02;;
54977;SDS011;40873;47.522;19.106;2022-12-26T16:10:01;55.95;;;23.95;;
54977;SDS011;40873;47.522;19.106;2022-12-26T16:12:54;59.88;;;24.98;;
54977;SDS011;40873;47.522;19.106;2022-12-26T16:15:24;62.08;;;24.13;;
54977;SDS011;40873;47.522;19.106;2022-12-26T16:17:52;58.88;;;23.45;;
54977;SDS011;40873;47.522;19.106;2022-12-26T16:23:16;55.53;;;23.38;;
54977;SDS011;40873;47.522;19.106;2022-12-26T16:25:47;61.05;;;24.17;;
54977;SDS011;40873;47.522;19.106;2022-12-26T16:28:23;56.45;;;24.52;;
54977;SDS011;40873;47.522;19.106;2022-12-26T16:30:59;67.72;;;25.52;;
54977;SDS011;40873;47.522;19.106;2022-12-26T16:33:30;50.40;;;23.70;;
54977;SDS011;40873;47.522;19.106;2022-12-26T16:36:03;58.78;;;25.08;;
54977;SDS011;40873;47.522;19.106;2022-12-26T16:38:33;63.90;;;29.02;;
54977;SDS011;40873;47.522;19.106;2022-12-26T16:41:00;70.20;;;26.38;;
54977;SDS011;40873;47.522;19.106;2022-12-26T16:43:43;75.47;;;24.57;;
54977;SDS011;40873;47.522;19.106;2022-12-26T16:46:11;63.20;;;26.50;;
54977;SDS011;40873;47.522;19.106;2022-12-26T16:48:40;71.00;;;27.73;;
54977;SDS011;40873;47.522;19.106;2022-12-26T16:59:24;66.40;;;26.40;;
54977;SDS011;40873;47.522;19.106;2022-12-26T17:01:56;72.78;;;29.85;;
54977;SDS011;40873;47.522;19.106;2022-12-26T17:04:27;74.53;;;27.65;;
54977;SDS011;40873;47.522;19.106;2022-12-26T17:09:25;85.35;;;29.55;;
54977;SDS011;40873;47.522;19.106;2022-12-26T17:11:57;78.55;;;27.88;;
54977;SDS011;40873;47.522;19.106;2022-12-26T17:14:32;78.32;;;31.00;;
54977;SDS011;40873;47.522;19.106;2022-12-26T17:17:03;79.05;;;29.25;;
54977;SDS011;40873;47.522;19.106;2022-12-26T17:19:34;93.75;;;30.05;;
54977;SDS011;40873;47.522;19.106;2022-12-26T17:27:57;93.57;;;30.55;;
54977;SDS011;40873;47.522;19.106;2022-12-26T17:30:35;105.55;;;32.60;;
54977;SDS011;40873;47.522;19.106;2022-12-26T17:36:02;76.50;;;26.50;;
54977;SDS011;40873;47.522;19.106;2022-12-26T17:38:53;88.63;;;27.92;;
54977;SDS011;40873;47.522;19.106;2022-12-26T17:41:20;69.03;;;25.23;;
54977;SDS011;40873;47.522;19.106;2022-12-26T17:43:48;65.97;;;24.30;;
54977;SDS011;40873;47.522;19.106;2022-12-26T17:46:18;62.53;;;24.50;;
54977;SDS011;40873;47.522;19.106;2022-12-26T17:48:46;58.78;;;21.65;;
54977;SDS011;40873;47.522;19.106;2022-12-26T17:51:14;88.95;;;24.40;;
54977;SDS011;40873;47.522;19.106;2022-12-26T17:53:49;94.78;;;23.75;;
54977;SDS011;40873;47.522;19.106;2022-12-26T17:56:18;95.60;;;26.67;;
54977;SDS011;40873;47.522;19.106;2022-12-26T17:58:50;94.90;;;25.20;;
54977;SDS011;40873;47.522;19.106;2022-12-26T18:01:17;84.47;;;24.75;;
54977;SDS011;40873;47.522;19.106;2022-12-26T18:03:48;98.53;;;24.20;;
54977;SDS011;40873;47.522;19.106;2022-12-26T18:06:18;68.03;;;24.63;;
54977;SDS011;40873;47.522;19.106;2022-12-26T18:08:48;71.20;;;23.65;;
54977;SDS011;40873;47.522;19.106;2022-12-26T18:11:15;67.55;;;23.63;;
54977;SDS011;40873;47.522;19.106;2022-12-26T18:13:43;67.40;;;21.80;;
54977;SDS011;40873;47.522;19.106;2022-12-26T18:16:16;84.28;;;24.30;;
54977;SDS011;40873;47.522;19.106;2022-12-26T18:18:45;93.05;;;25.25;;
54977;SDS011;40873;47.522;19.106;2022-12-26T18:21:14;65.45;;;22.20;;
54977;SDS011;40873;47.522;19.106;2022-12-26T18:23:42;95.95;;;22.67;;
54977;SDS011;40873;47.522;19.106;2022-12-26T18:26:28;82.93;;;20.85;;
54977;SDS011;40873;47.522;19.106;2022-12-26T18:28:57;88.30;;;21.05;;
54977;SDS011;40873;47.522;19.106;2022-12-26T18:31:25;82.78;;;19.13;;
54977;SDS011;40873;47.522;19.106;2022-12-26T18:33:54;101.95;;;23.88;;
54977;SDS011;40873;47.522;19.106;2022-12-26T18:36:34;84.88;;;22.65;;
54977;SDS011;40873;47.522;19.106;2022-12-26T18:39:04;76.03;;;20.20;;
54977;SDS011;40873;47.522;19.106;2022-12-26T18:41:31;74.60;;;20.42;;
54977;SDS011;40873;47.522;19.106;2022-12-26T18:43:59;100.60;;;21.20;;
54977;SDS011;40873;47.522;19.106;2022-12-26T18:46:26;67.00;;;22.55;;